Time;durP1;ratioP1;P1;durP2;ratioP2;P2;SDS_P1;SDS_P2;PMS_P1;PMS_P2;Temp;Humidity;BMP_temperature;BMP_pressure;BME280_temperature;BME280_humidity;BME280_pressure;Samples;Min_cycle;Max_cycle;Signal;HPM_P1;HPM_P2
2021/01/07 05:00:36;;;;;;;11.47;9.77;;;3.00;99.90;;;;;;5892194;23;20483;-66
2021/01/07 05:03:03;;;;;;;13.70;9.83;;;3.10;99.90;;;;;;4975853;28;20435;-66
2021/01/07 05:05:33;;;;;;;14.87;10.60;;;3.10;99.90;;;;;;4975981;28;20459;-66
2021/01/07 05:08:02;;;;;;;12.70;10.30;;;3.10;99.90;;;;;;4975892;28;20439;-66
2021/01/07 05:10:29;;;;;;;11.10;9.70;;;3.10;99.90;;;;;;4976277;28;20803;-66
2021/01/07 05:12:55;;;;;;;12.47;11.20;;;3.10;99.90;;;;;;4975966;28;20478;-66
2021/01/07 05:15:21;;;;;;;10.43;9.30;;;3.10;99.90;;;;;;4975866;28;20565;-65
2021/01/07 05:17:49;;;;;;;11.60;9.80;;;3.10;99.90;;;;;;4976002;28;20813;-66
2021/01/07 05:20:15;;;;;;;13.10;11.00;;;3.10;99.90;;;;;;4976047;28;20455;-67
2021/01/07 05:22:43;;;;;;;12.63;9.70;;;3.10;99.90;;;;;;4975821;28;20465;-66
2021/01/07 05:25:11;;;;;;;11.30;9.90;;;2.90;99.90;;;;;;4975934;28;20455;-65
2021/01/07 05:27:38;;;;;;;11.83;10.63;;;3.00;99.90;;;;;;4976487;28;20454;-66
2021/01/07 05:30:07;;;;;;;10.00;9.00;;;3.00;99.90;;;;;;4976093;28;20460;-67
2021/01/07 05:32:35;;;;;;;10.63;8.97;;;3.00;99.90;;;;;;4976296;28;20482;-67
2021/01/07 05:35:03;;;;;;;10.07;9.03;;;3.00;99.90;;;;;;4975858;28;20995;-66
2021/01/07 05:37:34;;;;;;;10.53;9.00;;;3.00;99.90;;;;;;4975550;28;20455;-65
2021/01/07 05:40:00;;;;;;;10.07;9.07;;;3.00;99.90;;;;;;4975701;28;20530;-66
2021/01/07 05:42:27;;;;;;;9.23;8.33;;;3.00;99.90;;;;;;4975356;28;20471;-67
2021/01/07 05:44:55;;;;;;;8.93;8.13;;;3.00;99.90;;;;;;4975479;28;20454;-66
2021/01/07 05:47:27;;;;;;;11.57;9.67;;;3.00;99.90;;;;;;4975479;28;20465;-66
2021/01/07 05:49:54;;;;;;;11.87;10.77;;;3.10;99.90;;;;;;4975622;28;20969;-66
2021/01/07 05:52:22;;;;;;;28.20;22.17;;;3.10;99.90;;;;;;4975502;28;20943;-66
2021/01/07 05:54:49;;;;;;;25.00;16.30;;;3.10;99.90;;;;;;4975301;28;20482;-67
2021/01/07 05:57:18;;;;;;;18.50;16.30;;;3.10;99.90;;;;;;4975686;28;20478;-67
2021/01/07 05:59:47;;;;;;;16.53;13.37;;;3.00;99.90;;;;;;4976391;28;20817;-67
2021/01/07 06:02:16;;;;;;;29.20;21.00;;;3.00;99.90;;;;;;4975290;28;20510;-66
2021/01/07 06:04:43;;;;;;;28.60;20.27;;;3.00;99.90;;;;;;4975316;28;20455;-67
2021/01/07 06:07:11;;;;;;;30.90;21.60;;;3.00;99.90;;;;;;4975354;28;20454;-66
2021/01/07 06:09:40;;;;;;;27.00;18.30;;;3.00;99.90;;;;;;4974295;28;21011;-66
2021/01/07 06:12:08;;;;;;;22.63;18.50;;;3.00;99.90;;;;;;4975192;28;20482;-65
2021/01/07 06:14:34;;;;;;;33.40;22.00;;;3.10;99.90;;;;;;4975058;28;20481;-66
2021/01/07 06:17:00;;;;;;;26.83;17.50;;;3.00;99.90;;;;;;4974931;28;20454;-66
2021/01/07 06:19:31;;;;;;;19.87;15.07;;;3.00;99.90;;;;;;4974359;28;20465;-66
2021/01/07 06:21:59;;;;;;;8.43;7.43;;;3.00;99.90;;;;;;4975447;28;20926;-66
2021/01/07 06:24:26;;;;;;;9.17;8.27;;;3.00;99.90;;;;;;4976243;28;20485;-65
2021/01/07 06:26:53;;;;;;;10.57;7.93;;;2.80;99.90;;;;;;4975764;28;20957;-66
2021/01/07 06:29:19;;;;;;;7.83;7.03;;;2.80;99.90;;;;;;4975458;28;20454;-65
2021/01/07 06:31:55;;;;;;;8.53;7.67;;;2.90;99.90;;;;;;4974862;28;20941;-66
2021/01/07 06:34:26;;;;;;;7.60;6.90;;;2.80;99.90;;;;;;4974631;28;20553;-66
2021/01/07 06:36:54;;;;;;;7.73;7.00;;;2.80;99.90;;;;;;4974598;28;20469;-66
2021/01/07 06:39:21;;;;;;;8.07;7.23;;;2.90;99.90;;;;;;4974677;28;20458;-66
2021/01/07 06:41:53;;;;;;;12.47;7.77;;;2.90;99.90;;;;;;4974833;28;20479;-66
2021/01/07 06:44:20;;;;;;;8.03;7.23;;;2.80;99.90;;;;;;4974547;28;20884;-66
2021/01/07 06:46:49;;;;;;;7.60;6.80;;;2.80;99.90;;;;;;4974510;28;20881;-66
2021/01/07 06:49:23;;;;;;;8.10;7.30;;;2.90;99.90;;;;;;4974885;28;20545;-65
2021/01/07 06:51:57;;;;;;;10.40;7.17;;;2.90;99.90;;;;;;4974398;28;20478;-66
2021/01/07 06:54:27;;;;;;;7.23;6.40;;;2.90;99.90;;;;;;4974355;28;20470;-66
2021/01/07 06:56:54;;;;;;;7.30;6.60;;;3.00;99.90;;;;;;4974510;28;20513;-66
2021/01/07 06:59:22;;;;;;;8.23;5.93;;;3.00;99.90;;;;;;4974198;28;20454;-66
2021/01/07 07:01:51;;;;;;;8.27;6.73;;;3.00;99.90;;;;;;4974148;28;20510;-66
2021/01/07 07:04:25;;;;;;;7.03;6.43;;;3.00;99.90;;;;;;4974682;28;20450;-66
2021/01/07 07:06:57;;;;;;;9.17;6.17;;;3.00;99.90;;;;;;4974277;28;20477;-66
2021/01/07 07:09:25;;;;;;;6.93;6.23;;;3.10;99.90;;;;;;4974476;28;20478;-66
2021/01/07 07:11:53;;;;;;;8.00;6.10;;;3.10;99.90;;;;;;4974218;28;20506;-66
2021/01/07 07:14:21;;;;;;;6.43;5.87;;;3.10;99.90;;;;;;4974306;28;20852;-66
2021/01/07 07:16:48;;;;;;;6.53;5.93;;;3.10;99.90;;;;;;4974178;28;20509;-66
2021/01/07 07:19:25;;;;;;;7.10;6.50;;;3.10;99.90;;;;;;4973883;28;20490;-66
2021/01/07 07:22:00;;;;;;;9.20;7.00;;;3.10;99.90;;;;;;4976291;28;20501;-66
2021/01/07 07:24:34;;;;;;;7.20;6.50;;;3.10;99.90;;;;;;4977352;28;20572;-65
2021/01/07 07:27:07;;;;;;;7.00;5.97;;;3.00;99.90;;;;;;4983292;28;20561;-66
2021/01/07 07:29:37;;;;;;;6.83;6.23;;;3.10;99.90;;;;;;4995852;28;20443;-66
2021/01/07 07:32:25;;;;;;;7.87;7.07;;;3.10;99.90;;;;;;4994771;28;20494;-66
2021/01/07 07:34:52;;;;;;;7.87;6.97;;;3.10;99.90;;;;;;4980320;28;20467;-65
2021/01/07 07:37:20;;;;;;;9.83;7.50;;;3.10;99.90;;;;;;4977920;28;20455;-65
2021/01/07 07:39:49;;;;;;;8.00;7.20;;;3.10;99.90;;;;;;4978032;28;20451;-65
2021/01/07 07:42:16;;;;;;;8.00;7.20;;;3.10;99.90;;;;;;4977446;28;20602;-65
2021/01/07 07:44:43;;;;;;;7.70;7.00;;;3.00;99.90;;;;;;4976954;28;20953;-65
2021/01/07 07:47:10;;;;;;;8.53;7.70;;;3.10;99.90;;;;;;4977026;28;20459;-65
2021/01/07 07:49:36;;;;;;;8.47;7.50;;;3.10;99.90;;;;;;4977965;28;20490;-65
2021/01/07 07:52:02;;;;;;;7.67;6.87;;;3.10;99.90;;;;;;4976882;28;20811;-65
2021/01/07 07:54:28;;;;;;;7.60;6.80;;;3.10;99.90;;;;;;4977644;28;20486;-66
2021/01/07 07:56:59;;;;;;;8.43;7.47;;;3.20;99.90;;;;;;4976793;28;20508;-66
2021/01/07 07:59:25;;;;;;;8.20;7.40;;;3.20;99.90;;;;;;4978051;28;20455;-65
2021/01/07 08:01:54;;;;;;;8.90;7.70;;;3.20;99.90;;;;;;4979639;28;20941;-65
2021/01/07 08:04:22;;;;;;;10.37;8.47;;;3.20;99.90;;;;;;4979778;28;20517;-66
2021/01/07 08:06:49;;;;;;;8.93;8.03;;;3.30;99.90;;;;;;4980792;28;20525;-65
2021/01/07 08:09:18;;;;;;;8.50;7.70;;;3.30;99.90;;;;;;4980811;28;20466;-65
2021/01/07 08:11:49;;;;;;;11.20;8.33;;;3.30;99.90;;;;;;4980079;28;20478;-66
2021/01/07 08:14:21;;;;;;;8.60;7.73;;;3.30;99.90;;;;;;4977044;28;20462;-65
2021/01/07 08:16:49;;;;;;;8.80;8.00;;;3.30;99.90;;;;;;4976468;28;20486;-65
2021/01/07 08:19:17;;;;;;;9.40;8.33;;;3.40;99.90;;;;;;4976494;28;20467;-65
2021/01/07 08:21:45;;;;;;;10.50;9.07;;;3.40;99.90;;;;;;4976533;28;20475;-66
2021/01/07 08:24:12;;;;;;;9.43;8.53;;;3.40;99.90;;;;;;4976890;28;20447;-66
2021/01/07 08:26:40;;;;;;;11.10;8.90;;;3.40;99.90;;;;;;4976161;28;20457;-66
2021/01/07 08:29:08;;;;;;;11.63;9.37;;;3.40;99.90;;;;;;4976677;28;20458;-66
2021/01/07 08:31:38;;;;;;;9.73;7.87;;;3.50;99.90;;;;;;4976181;28;20506;-66
2021/01/07 08:34:05;;;;;;;9.10;8.20;;;3.50;99.90;;;;;;4975680;28;20489;-66
2021/01/07 08:36:32;;;;;;;11.30;8.90;;;3.50;99.90;;;;;;4976557;28;20454;-66
2021/01/07 08:38:58;;;;;;;9.00;8.10;;;3.50;99.90;;;;;;4976396;28;20461;-66
2021/01/07 08:41:28;;;;;;;9.80;8.80;;;3.50;99.90;;;;;;4976722;28;20486;-66
2021/01/07 08:43:56;;;;;;;11.63;9.47;;;3.50;99.90;;;;;;4976402;28;20465;-66
2021/01/07 08:46:25;;;;;;;9.13;8.23;;;3.50;99.90;;;;;;4977306;28;20801;-66
2021/01/07 08:48:59;;;;;;;9.37;8.47;;;3.40;99.90;;;;;;4975848;28;20454;-67
2021/01/07 08:51:25;;;;;;;11.17;9.60;;;3.40;99.90;;;;;;4975917;28;20837;-67
2021/01/07 08:53:54;;;;;;;11.03;9.93;;;3.40;99.90;;;;;;4975698;28;20474;-67
2021/01/07 08:56:31;;;;;;;11.60;9.70;;;3.40;99.90;;;;;;4975956;28;20459;-66
2021/01/07 08:59:16;;;;;;;13.80;11.00;;;3.40;99.90;;;;;;4976107;28;20800;-66
2021/01/07 09:01:42;;;;;;;10.33;9.20;;;3.40;99.90;;;;;;4975688;28;20489;-67
2021/01/07 09:04:31;;;;;;;11.77;10.00;;;3.60;99.90;;;;;;4975781;28;20497;-68
2021/01/07 09:07:08;;;;;;;12.80;10.77;;;3.90;99.90;;;;;;4975943;28;20489;-67
2021/01/07 09:09:41;;;;;;;12.57;11.27;;;4.30;99.90;;;;;;4976048;28;20485;-66
2021/01/07 09:12:12;;;;;;;12.33;11.03;;;4.70;99.90;;;;;;4975523;28;20474;-67
2021/01/07 09:14:57;;;;;;;12.47;11.13;;;4.70;99.90;;;;;;4975551;28;20471;-67
2021/01/07 09:17:26;;;;;;;13.30;11.90;;;4.70;99.90;;;;;;4975627;28;20450;-67
2021/01/07 09:19:54;;;;;;;13.17;11.80;;;4.70;99.90;;;;;;4975720;28;20473;-67
2021/01/07 09:22:23;;;;;;;14.20;12.33;;;4.70;99.90;;;;;;4976158;28;20474;-66
2021/01/07 09:24:52;;;;;;;16.43;13.53;;;4.60;99.90;;;;;;4975441;28;20505;-67
2021/01/07 09:27:20;;;;;;;19.17;13.43;;;4.50;99.90;;;;;;4975900;28;20454;-65
2021/01/07 09:29:46;;;;;;;15.70;12.87;;;4.50;99.90;;;;;;4976650;28;20446;-65
2021/01/07 09:32:15;;;;;;;15.50;13.57;;;4.50;99.90;;;;;;4977666;28;20520;-66
2021/01/07 09:34:42;;;;;;;17.43;14.03;;;4.50;99.90;;;;;;4977474;28;20818;-66
2021/01/07 09:37:14;;;;;;;14.90;13.20;;;4.50;99.90;;;;;;4978449;28;20802;-66
2021/01/07 09:39:41;;;;;;;15.70;13.53;;;4.50;99.90;;;;;;4976247;28;20462;-66
2021/01/07 09:42:08;;;;;;;17.00;13.37;;;4.50;99.90;;;;;;4975194;28;20479;-66
2021/01/07 09:44:35;;;;;;;15.40;12.83;;;4.40;99.90;;;;;;4975504;28;20455;-65
2021/01/07 09:47:02;;;;;;;15.03;13.43;;;4.40;99.90;;;;;;4976144;28;20461;-66
2021/01/07 09:49:29;;;;;;;15.27;12.47;;;4.40;99.90;;;;;;4975897;28;20443;-65
2021/01/07 09:51:56;;;;;;;14.37;12.83;;;4.30;99.90;;;;;;4978448;28;20973;-66
2021/01/07 09:54:23;;;;;;;16.23;13.47;;;4.30;99.90;;;;;;4976118;28;20467;-66
2021/01/07 09:56:53;;;;;;;15.27;13.40;;;4.30;99.90;;;;;;4975402;28;20451;-67
2021/01/07 09:59:21;;;;;;;18.43;13.53;;;4.30;99.90;;;;;;4974865;28;20444;-66
2021/01/07 10:01:51;;;;;;;15.00;13.23;;;4.30;99.90;;;;;;4974452;28;20486;-66
2021/01/07 10:04:17;;;;;;;17.43;13.63;;;4.20;99.90;;;;;;4974960;28;20443;-67
2021/01/07 10:06:44;;;;;;;17.50;12.87;;;4.20;99.90;;;;;;4974927;28;20454;-66
2021/01/07 10:09:10;;;;;;;16.93;12.80;;;4.20;99.90;;;;;;4974834;28;20454;-66
2021/01/07 10:11:36;;;;;;;17.23;13.90;;;4.20;99.90;;;;;;4974714;28;20481;-67
2021/01/07 10:14:03;;;;;;;15.07;12.67;;;4.20;99.90;;;;;;4974474;28;20973;-65
2021/01/07 10:16:30;;;;;;;16.40;13.30;;;4.10;99.90;;;;;;4974374;28;20458;-66
2021/01/07 10:18:56;;;;;;;17.27;14.20;;;4.10;99.90;;;;;;4974407;28;20961;-65
2021/01/07 10:21:24;;;;;;;18.70;12.23;;;4.20;99.90;;;;;;4974507;28;21065;-66
2021/01/07 10:23:51;;;;;;;17.53;13.83;;;4.10;99.90;;;;;;4974201;28;20816;-67
2021/01/07 10:26:20;;;;;;;17.33;13.73;;;4.20;99.90;;;;;;4974838;28;20509;-66
2021/01/07 10:28:47;;;;;;;18.03;14.10;;;4.20;99.90;;;;;;4974742;28;20461;-66
2021/01/07 10:31:15;;;;;;;16.33;13.37;;;4.30;99.90;;;;;;4974626;28;20483;-66
2021/01/07 10:33:43;;;;;;;15.43;13.80;;;4.30;99.90;;;;;;4974308;28;20435;-67
2021/01/07 10:36:10;;;;;;;16.13;12.87;;;4.30;99.90;;;;;;4974548;28;20455;-66
2021/01/07 10:38:37;;;;;;;15.60;13.67;;;4.30;99.90;;;;;;4974900;28;20498;-66
2021/01/07 10:41:06;;;;;;;15.60;13.00;;;4.30;99.90;;;;;;4974715;28;20482;-67
2021/01/07 10:43:33;;;;;;;15.53;13.07;;;4.30;99.90;;;;;;4974275;28;20972;-67
2021/01/07 10:45:59;;;;;;;15.93;12.60;;;4.20;99.90;;;;;;4974558;28;20486;-66
2021/01/07 10:48:26;;;;;;;16.17;13.33;;;4.30;99.90;;;;;;4975137;28;20439;-66
2021/01/07 10:50:53;;;;;;;15.83;13.07;;;4.20;99.90;;;;;;4974616;28;20478;-66
2021/01/07 10:53:53;;;;;;;15.07;12.80;;;4.30;99.90;;;;;;4974205;28;20950;-66
2021/01/07 10:56:36;;;;;;;14.10;12.20;;;4.30;99.90;;;;;;4976220;28;20435;-66
2021/01/07 10:59:17;;;;;;;13.70;11.60;;;4.40;99.90;;;;;;4978869;28;20504;-66
2021/01/07 11:01:52;;;;;;;14.93;11.60;;;4.40;99.90;;;;;;4977843;28;20489;-66
2021/01/07 11:04:49;;;;;;;14.23;12.33;;;4.50;99.90;;;;;;4978137;28;20441;-66
2021/01/07 11:07:23;;;;;;;13.83;11.30;;;4.50;99.90;;;;;;4973994;28;20976;-67
2021/01/07 11:09:54;;;;;;;13.00;11.03;;;4.50;99.90;;;;;;4978157;28;20439;-68
2021/01/07 11:12:24;;;;;;;12.37;10.97;;;4.60;99.90;;;;;;4981633;28;20474;-67
2021/01/07 11:14:52;;;;;;;15.40;13.23;;;4.80;99.90;;;;;;4979064;28;20888;-68
2021/01/07 11:17:24;;;;;;;12.10;10.60;;;4.90;99.90;;;;;;4978299;28;20458;-67
2021/01/07 11:19:51;;;;;;;13.77;11.23;;;4.90;99.90;;;;;;4978498;28;20443;-67
2021/01/07 11:22:20;;;;;;;12.47;10.57;;;5.00;99.90;;;;;;4978213;28;20479;-66
2021/01/07 11:24:49;;;;;;;12.50;10.50;;;5.00;99.90;;;;;;4978283;28;20463;-67
2021/01/07 11:27:16;;;;;;;13.57;10.67;;;5.00;99.90;;;;;;4977998;28;20545;-67
2021/01/07 11:29:43;;;;;;;13.40;10.87;;;4.90;99.90;;;;;;4978070;28;20439;-67
2021/01/07 11:32:10;;;;;;;12.30;9.93;;;4.70;99.90;;;;;;4977875;28;20481;-67
2021/01/07 11:34:37;;;;;;;10.73;9.63;;;4.70;99.90;;;;;;4977953;28;20474;-67
2021/01/07 11:37:13;;;;;;;11.70;9.60;;;4.70;99.90;;;;;;4978248;28;20455;-67
2021/01/07 11:40:02;;;;;;;10.90;9.80;;;4.70;99.90;;;;;;4978174;28;20449;-67
2021/01/07 11:42:38;;;;;;;10.47;9.33;;;4.60;99.90;;;;;;4977938;28;20478;-67
2021/01/07 11:45:08;;;;;;;10.93;8.40;;;4.60;99.90;;;;;;4978057;28;20438;-67
2021/01/07 11:47:47;;;;;;;10.53;9.20;;;4.60;99.90;;;;;;4977986;28;20443;-67
2021/01/07 11:50:14;;;;;;;9.97;8.70;;;4.50;99.90;;;;;;4977843;28;20549;-67
2021/01/07 11:52:44;;;;;;;9.87;8.70;;;4.50;99.90;;;;;;4977738;28;20461;-66
2021/01/07 11:55:12;;;;;;;9.13;8.20;;;4.30;99.90;;;;;;4977275;28;20851;-67
2021/01/07 11:57:40;;;;;;;9.30;8.20;;;4.30;99.90;;;;;;4977552;28;20463;-67
2021/01/07 12:00:11;;;;;;;10.80;9.07;;;4.40;99.90;;;;;;4977283;28;20455;-67
2021/01/07 12:02:39;;;;;;;10.23;8.70;;;4.40;99.90;;;;;;4977525;28;20470;-67
2021/01/07 12:05:06;;;;;;;10.33;8.50;;;4.60;99.90;;;;;;4977221;28;20466;-67
2021/01/07 12:07:42;;;;;;;10.63;7.73;;;4.60;99.90;;;;;;4976703;28;20447;-67
2021/01/07 12:10:09;;;;;;;10.73;8.23;;;4.50;99.90;;;;;;4977869;28;20466;-67
2021/01/07 12:12:42;;;;;;;8.97;8.03;;;4.60;99.90;;;;;;4977897;28;20896;-67
2021/01/07 12:15:15;;;;;;;8.30;7.50;;;4.60;99.90;;;;;;4978637;28;20522;-67
2021/01/07 12:17:41;;;;;;;8.60;7.80;;;4.70;99.90;;;;;;4977624;28;20451;-67
2021/01/07 12:20:09;;;;;;;9.23;8.23;;;4.70;99.90;;;;;;4977157;28;20816;-67
2021/01/07 12:22:36;;;;;;;8.83;7.93;;;4.70;99.90;;;;;;4977128;28;20481;-68
2021/01/07 12:25:05;;;;;;;7.53;6.80;;;4.80;99.90;;;;;;4976947;28;20461;-68
2021/01/07 12:27:31;;;;;;;10.60;8.13;;;4.60;99.90;;;;;;4977146;28;20478;-67
2021/01/07 12:30:00;;;;;;;9.10;8.20;;;4.70;99.90;;;;;;4977289;28;20454;-67
2021/01/07 12:32:30;;;;;;;8.73;7.83;;;4.70;99.90;;;;;;4976913;28;20475;-67
2021/01/07 12:35:07;;;;;;;8.43;7.53;;;4.70;99.90;;;;;;4976842;28;20973;-66
2021/01/07 12:37:42;;;;;;;10.70;8.00;;;4.80;99.90;;;;;;4988812;28;20517;-67
2021/01/07 12:40:12;;;;;;;10.00;8.10;;;4.80;99.90;;;;;;4987876;28;20513;-67
2021/01/07 12:42:42;;;;;;;9.47;8.23;;;4.90;99.90;;;;;;4989040;28;20471;-67
2021/01/07 12:45:13;;;;;;;9.37;8.03;;;5.00;99.90;;;;;;4982507;28;20439;-66
2021/01/07 12:47:39;;;;;;;9.33;8.20;;;5.10;99.90;;;;;;4976462;28;20442;-66
2021/01/07 12:50:07;;;;;;;10.00;8.13;;;5.10;99.90;;;;;;4976379;28;20459;-66
2021/01/07 12:52:34;;;;;;;10.67;9.57;;;5.10;99.90;;;;;;4977174;28;20478;-66
2021/01/07 12:55:01;;;;;;;9.77;8.80;;;5.00;99.90;;;;;;4976034;28;20478;-66
2021/01/07 12:57:35;;;;;;;10.07;8.83;;;5.00;99.90;;;;;;4975995;28;20454;-66
2021/01/07 13:00:06;;;;;;;11.43;10.00;;;4.90;99.90;;;;;;4976536;28;20449;-66
2021/01/07 13:02:48;;;;;;;9.60;8.30;;;4.90;99.90;;;;;;4976652;28;20541;-66
2021/01/07 13:05:19;;;;;;;10.93;9.37;;;4.70;99.90;;;;;;4976371;28;20439;-70
2021/01/07 13:07:46;;;;;;;11.40;9.53;;;4.80;99.90;;;;;;4976766;28;20475;-66
2021/01/07 13:10:13;;;;;;;10.20;8.60;;;4.80;99.90;;;;;;4976095;28;20465;-66
2021/01/07 13:12:40;;;;;;;12.27;9.00;;;4.80;99.90;;;;;;4976495;28;20486;-66
2021/01/07 13:15:09;;;;;;;10.30;9.20;;;4.80;99.90;;;;;;4975779;28;20479;-68
2021/01/07 13:17:37;;;;;;;10.10;8.77;;;4.90;99.90;;;;;;4976297;28;20455;-67
2021/01/07 13:20:05;;;;;;;10.07;8.50;;;4.90;99.90;;;;;;4975742;28;21095;-66
2021/01/07 13:22:31;;;;;;;11.77;8.80;;;4.80;99.90;;;;;;4975926;28;20477;-65
2021/01/07 13:24:59;;;;;;;10.27;9.17;;;4.80;99.90;;;;;;4976623;28;20530;-66
2021/01/07 13:27:25;;;;;;;10.57;9.30;;;4.80;99.90;;;;;;4975759;28;20486;-67
2021/01/07 13:29:54;;;;;;;12.93;9.10;;;4.70;99.90;;;;;;4976049;28;20494;-65
2021/01/07 13:32:21;;;;;;;10.27;9.17;;;4.80;99.90;;;;;;4975764;28;20478;-67
2021/01/07 13:34:51;;;;;;;8.80;8.00;;;4.80;99.90;;;;;;4975979;28;20529;-66
2021/01/07 13:37:18;;;;;;;9.63;7.10;;;4.90;99.90;;;;;;4975922;28;20467;-65
2021/01/07 13:39:45;;;;;;;11.87;8.23;;;4.90;99.90;;;;;;4975800;28;20459;-65
2021/01/07 13:42:12;;;;;;;9.43;8.27;;;4.80;99.90;;;;;;4975755;28;20475;-66
2021/01/07 13:44:40;;;;;;;9.83;8.80;;;4.90;99.90;;;;;;4975691;28;20811;-67
2021/01/07 13:47:06;;;;;;;10.50;8.67;;;4.90;99.90;;;;;;4975517;28;20461;-68
2021/01/07 13:49:34;;;;;;;9.30;8.30;;;4.90;99.90;;;;;;4975464;28;20465;-68
2021/01/07 13:52:05;;;;;;;9.93;9.00;;;5.00;99.90;;;;;;4975367;28;20513;-66
2021/01/07 13:54:38;;;;;;;9.27;8.30;;;5.10;99.90;;;;;;4975833;28;20470;-65
2021/01/07 13:57:05;;;;;;;9.73;8.20;;;5.00;99.90;;;;;;4975207;28;20443;-66
2021/01/07 13:59:33;;;;;;;9.40;8.40;;;5.00;99.90;;;;;;4974420;28;20462;-65
2021/01/07 14:02:02;;;;;;;11.90;8.90;;;5.10;99.90;;;;;;4974409;28;20857;-65
2021/01/07 14:04:34;;;;;;;10.60;9.13;;;5.10;99.90;;;;;;4974420;28;20455;-65
2021/01/07 14:07:07;;;;;;;11.40;9.97;;;5.00;99.90;;;;;;4974478;28;20454;-64
2021/01/07 14:09:34;;;;;;;9.53;8.30;;;4.90;99.90;;;;;;4975168;28;20450;-65
2021/01/07 14:12:04;;;;;;;11.17;8.70;;;4.70;99.90;;;;;;4975459;28;20506;-66
2021/01/07 14:14:30;;;;;;;9.73;8.50;;;4.70;99.90;;;;;;4974214;28;20474;-65
2021/01/07 14:16:57;;;;;;;10.43;8.77;;;4.60;99.90;;;;;;4975465;28;20550;-65
2021/01/07 14:19:24;;;;;;;11.97;9.10;;;4.60;99.90;;;;;;4974960;28;20455;-65
2021/01/07 14:21:50;;;;;;;11.57;9.77;;;4.60;99.90;;;;;;4974325;28;21025;-64
2021/01/07 14:24:18;;;;;;;11.83;9.13;;;4.60;99.90;;;;;;4974545;28;20439;-65
2021/01/07 14:26:56;;;;;;;12.97;9.70;;;4.60;99.90;;;;;;4974107;28;20461;-65
2021/01/07 14:29:26;;;;;;;12.30;10.33;;;4.60;99.90;;;;;;4974602;28;20932;-65
2021/01/07 14:31:53;;;;;;;12.30;9.80;;;4.60;99.90;;;;;;4977438;28;20573;-65
2021/01/07 14:34:21;;;;;;;12.00;9.67;;;4.60;99.90;;;;;;4977719;28;20884;-64
2021/01/07 14:36:48;;;;;;;11.53;9.57;;;4.40;99.90;;;;;;4978057;28;20454;-65
2021/01/07 14:39:14;;;;;;;11.20;9.57;;;4.60;99.90;;;;;;4977551;28;20458;-65
2021/01/07 14:41:41;;;;;;;9.80;8.80;;;4.60;99.90;;;;;;4977972;28;20479;-64
2021/01/07 14:44:08;;;;;;;13.20;9.27;;;4.50;99.90;;;;;;4978084;28;20439;-64
2021/01/07 14:46:35;;;;;;;10.20;9.20;;;4.60;99.90;;;;;;4977959;28;20840;-64
2021/01/07 14:49:04;;;;;;;13.23;9.80;;;4.50;99.90;;;;;;4977769;28;20459;-65
2021/01/07 14:51:32;;;;;;;9.77;8.77;;;4.50;99.90;;;;;;4977986;28;20537;-66
2021/01/07 14:54:00;;;;;;;11.37;9.20;;;4.40;99.90;;;;;;4977733;28;20512;-66
2021/01/07 14:56:34;;;;;;;10.60;9.30;;;4.40;99.90;;;;;;4978056;28;20446;-66
2021/01/07 14:59:22;;;;;;;11.17;8.90;;;4.30;99.90;;;;;;4977359;28;20438;-65
2021/01/07 15:02:06;;;;;;;10.40;9.20;;;4.30;99.90;;;;;;4977287;28;20545;-65
2021/01/07 15:04:40;;;;;;;13.67;9.43;;;4.30;99.90;;;;;;4977244;28;20437;-66
2021/01/07 15:07:15;;;;;;;9.70;8.07;;;4.10;99.90;;;;;;4977585;28;20434;-66
2021/01/07 15:09:45;;;;;;;11.27;8.80;;;4.10;99.90;;;;;;4977580;28;20485;-66
2021/01/07 15:12:18;;;;;;;13.83;10.80;;;4.10;99.90;;;;;;4977649;28;20533;-65
2021/01/07 15:14:51;;;;;;;20.83;15.50;;;4.10;99.90;;;;;;4977493;28;20467;-66
2021/01/07 15:17:36;;;;;;;19.33;14.93;;;4.20;99.90;;;;;;4977509;28;20430;-65
2021/01/07 15:20:06;;;;;;;18.57;13.83;;;4.20;99.90;;;;;;4977485;28;20796;-65
2021/01/07 15:22:54;;;;;;;15.77;11.77;;;4.20;99.90;;;;;;4977277;28;20482;-66
2021/01/07 15:25:28;;;;;;;14.47;11.80;;;4.20;99.90;;;;;;4977312;28;20450;-65
2021/01/07 15:28:01;;;;;;;11.90;9.90;;;4.20;99.90;;;;;;4977328;28;20529;-65
2021/01/07 15:30:38;;;;;;;12.23;10.23;;;4.20;99.90;;;;;;4977489;28;20438;-65
2021/01/07 15:33:06;;;;;;;11.50;9.80;;;4.20;99.90;;;;;;4977411;28;20442;-65
2021/01/07 15:35:35;;;;;;;13.70;10.57;;;4.20;99.90;;;;;;4977200;28;20482;-65
2021/01/07 15:38:45;;;;;;;14.67;11.33;;;4.20;99.90;;;;;;4977676;28;20481;-65
2021/01/07 15:42:01;;;;;;;13.60;9.77;;;4.10;99.90;;;;;;4977295;28;20481;-65
2021/01/07 15:44:58;;;;;;;12.03;8.77;;;4.10;99.90;;;;;;4978499;28;20447;-64
2021/01/07 15:48:09;;;;;;;13.10;9.33;;;4.10;99.90;;;;;;4977209;28;20799;-65
2021/01/07 15:50:41;;;;;;;11.90;10.53;;;4.00;99.90;;;;;;4977020;28;20944;-64
2021/01/07 15:53:34;;;;;;;13.10;10.30;;;3.90;99.90;;;;;;4977409;28;20439;-65
2021/01/07 15:56:22;;;;;;;12.77;10.67;;;4.00;99.90;;;;;;4975708;28;20482;-65
2021/01/07 15:59:01;;;;;;;11.33;10.00;;;3.90;99.90;;;;;;4977642;28;20443;-64
2021/01/07 16:01:36;;;;;;;10.27;8.50;;;4.00;99.90;;;;;;4977257;28;20493;-64
2021/01/07 16:04:09;;;;;;;13.10;9.90;;;4.00;99.90;;;;;;4977520;28;20473;-65
2021/01/07 16:06:42;;;;;;;11.07;9.90;;;4.00;99.90;;;;;;4977004;28;20929;-65
2021/01/07 16:09:08;;;;;;;10.53;9.10;;;4.00;99.90;;;;;;4976798;28;20828;-65
2021/01/07 16:11:37;;;;;;;12.93;10.30;;;3.90;99.90;;;;;;4977347;28;20480;-64
2021/01/07 16:14:05;;;;;;;14.03;10.63;;;3.90;99.90;;;;;;4977236;28;20458;-64
2021/01/07 16:16:32;;;;;;;13.90;10.53;;;4.00;99.90;;;;;;4976725;28;20482;-65
2021/01/07 16:19:01;;;;;;;14.73;10.93;;;3.90;99.90;;;;;;4976893;28;20459;-64
2021/01/07 16:21:34;;;;;;;11.30;10.10;;;3.80;99.90;;;;;;4976174;28;20977;-64
2021/01/07 16:24:05;;;;;;;11.47;9.57;;;3.70;99.90;;;;;;4976233;28;20932;-65
2021/01/07 16:26:32;;;;;;;10.67;9.20;;;3.70;99.90;;;;;;4977389;28;20439;-64
2021/01/07 16:29:00;;;;;;;12.93;9.83;;;3.70;99.90;;;;;;4976706;28;20474;-68
2021/01/07 16:31:27;;;;;;;14.73;12.43;;;3.70;99.90;;;;;;4976893;28;20475;-64
2021/01/07 16:33:55;;;;;;;16.23;14.53;;;3.70;99.90;;;;;;4976729;28;20483;-65
2021/01/07 16:36:21;;;;;;;13.07;11.63;;;3.70;99.90;;;;;;4976579;28;20483;-65
2021/01/07 16:38:50;;;;;;;14.57;11.40;;;3.70;99.90;;;;;;4976284;28;20938;-65
2021/01/07 16:41:16;;;;;;;14.73;12.90;;;3.70;99.90;;;;;;4976424;28;20475;-64
2021/01/07 16:43:43;;;;;;;16.30;13.73;;;3.60;99.90;;;;;;4976163;28;20965;-65
2021/01/07 16:46:09;;;;;;;15.40;13.80;;;3.70;99.90;;;;;;4976446;28;20447;-65
2021/01/07 16:48:37;;;;;;;16.30;14.10;;;3.60;99.90;;;;;;4976553;28;20509;-65
2021/01/07 16:51:04;;;;;;;16.40;14.70;;;3.60;99.90;;;;;;4976332;28;20484;-65
2021/01/07 16:53:30;;;;;;;15.83;14.07;;;3.60;99.90;;;;;;4976271;28;20455;-67
2021/01/07 16:55:57;;;;;;;16.40;14.70;;;3.60;99.90;;;;;;4976439;28;20481;-65
2021/01/07 16:58:24;;;;;;;15.67;13.13;;;3.60;99.90;;;;;;4976035;28;20458;-65
2021/01/07 17:00:50;;;;;;;14.87;13.27;;;3.60;99.90;;;;;;4976381;28;20525;-65
2021/01/07 17:03:17;;;;;;;16.20;12.20;;;3.50;99.90;;;;;;4976524;28;20454;-65
2021/01/07 17:05:43;;;;;;;15.60;12.67;;;3.50;99.90;;;;;;4976197;28;20458;-66
2021/01/07 17:08:09;;;;;;;16.33;12.00;;;3.50;99.90;;;;;;4975600;28;21027;-65
2021/01/07 17:10:35;;;;;;;12.80;11.40;;;3.50;99.90;;;;;;4975715;28;20514;-65
2021/01/07 17:13:03;;;;;;;14.10;12.30;;;3.50;99.90;;;;;;4975773;28;20868;-64
2021/01/07 17:15:29;;;;;;;16.70;12.13;;;3.50;99.90;;;;;;4975269;28;20478;-64
2021/01/07 17:17:57;;;;;;;13.80;11.70;;;3.50;99.90;;;;;;4975584;28;20461;-65
2021/01/07 17:20:23;;;;;;;13.37;11.50;;;3.40;99.90;;;;;;4975878;28;20855;-64
2021/01/07 17:22:49;;;;;;;14.70;12.20;;;3.40;99.90;;;;;;4977839;28;20455;-65
2021/01/07 17:25:15;;;;;;;12.57;11.03;;;3.40;99.90;;;;;;4978504;28;20506;-64
2021/01/07 17:27:42;;;;;;;14.27;11.43;;;3.50;99.90;;;;;;4978209;28;20458;-65
2021/01/07 17:30:10;;;;;;;13.20;11.80;;;3.50;99.90;;;;;;4977361;28;20455;-64
2021/01/07 17:32:36;;;;;;;17.50;12.13;;;3.50;99.90;;;;;;4975964;28;20522;-67
2021/01/07 17:35:03;;;;;;;13.43;11.97;;;3.50;99.90;;;;;;4976379;28;20463;-65
2021/01/07 17:37:29;;;;;;;16.63;12.73;;;3.50;99.90;;;;;;4976034;28;20812;-65
2021/01/07 17:39:55;;;;;;;15.97;12.00;;;3.60;99.90;;;;;;4978754;28;20458;-64
2021/01/07 17:42:21;;;;;;;15.97;11.67;;;3.60;99.90;;;;;;4978667;28;20514;-64
2021/01/07 17:44:48;;;;;;;13.17;11.50;;;3.60;99.90;;;;;;4978704;28;20450;-64
2021/01/07 17:47:15;;;;;;;14.87;12.30;;;3.60;99.90;;;;;;4977928;28;20455;-64
2021/01/07 17:49:41;;;;;;;16.77;11.97;;;3.60;99.90;;;;;;4978252;28;20825;-66
2021/01/07 17:52:11;;;;;;;15.70;12.77;;;3.70;99.90;;;;;;4975102;28;20478;-66
2021/01/07 17:54:38;;;;;;;11.87;10.30;;;3.60;99.90;;;;;;4975307;28;20482;-65
2021/01/07 17:57:05;;;;;;;11.73;10.13;;;3.60;99.90;;;;;;4974830;28;20462;-65
2021/01/07 17:59:32;;;;;;;13.70;10.20;;;3.60;99.90;;;;;;4974836;28;20451;-66